createdAt,value
2018-05-01T00:02:17.044Z,43.76
2018-05-01T00:04:44.602Z,43.11
2018-05-01T00:07:12.163Z,43.30
2018-05-01T00:09:40.021Z,43.37
2018-05-01T00:12:07.607Z,43.86
2018-05-01T00:14:35.189Z,43.77
2018-05-01T00:17:03.018Z,43.28
2018-05-01T00:19:30.557Z,43.81
2018-05-01T00:21:58.134Z,43.84
2018-05-01T00:24:26.101Z,43.66
2018-05-01T00:26:53.671Z,43.82
2018-05-01T00:29:21.194Z,44.41
2018-05-01T00:31:48.865Z,43.95
2018-05-01T00:34:16.390Z,44.52
2018-05-01T00:36:43.916Z,44.78
2018-05-01T00:39:11.485Z,44.85
2018-05-01T00:41:39.129Z,44.23
2018-05-01T00:44:06.679Z,44.45
2018-05-01T00:46:34.646Z,44.53
2018-05-01T00:49:02.207Z,44.29
2018-05-01T00:51:29.807Z,44.52
2018-05-01T00:53:57.402Z,44.83
2018-05-01T00:56:24.911Z,44.84
2018-05-01T00:58:52.470Z,45.48
2018-05-01T01:01:20.284Z,44.63
2018-05-01T01:03:47.893Z,44.41
2018-05-01T01:06:15.326Z,44.18
2018-05-01T01:08:43.106Z,44.44
2018-05-01T01:11:10.632Z,44.22
2018-05-01T01:13:38.196Z,43.98
2018-05-01T01:16:05.777Z,44.00
2018-05-01T01:18:33.329Z,43.57
2018-05-01T01:21:01.776Z,43.50
2018-05-01T01:23:29.330Z,45.01
2018-05-01T01:25:56.848Z,44.96
2018-05-01T01:28:24.385Z,45.62
2018-05-01T01:30:51.937Z,46.20
2018-05-01T01:33:19.476Z,45.90
2018-05-01T01:35:46.501Z,46.15
2018-05-01T01:38:13.528Z,46.11
2018-05-01T01:40:40.512Z,46.39
2018-05-01T01:43:07.496Z,46.64
2018-05-01T01:45:34.532Z,46.08
2018-05-01T01:48:01.513Z,46.05
2018-05-01T01:50:28.496Z,45.81
2018-05-01T01:52:55.526Z,46.02
2018-05-01T01:55:22.517Z,46.30
2018-05-01T01:57:49.501Z,46.44
2018-05-01T02:00:16.536Z,46.96
2018-05-01T02:02:43.512Z,47.29
2018-05-01T02:05:10.629Z,48.03
2018-05-01T02:07:37.664Z,47.62
2018-05-01T02:10:04.719Z,47.75
2018-05-01T02:12:31.648Z,48.69
2018-05-01T02:14:58.656Z,48.46
2018-05-01T02:17:25.627Z,48.45
2018-05-01T02:19:52.607Z,48.38
2018-05-01T02:22:19.643Z,48.09
2018-05-01T02:24:46.622Z,48.48
2018-05-01T02:27:13.628Z,48.65
2018-05-01T02:29:40.673Z,48.63
2018-05-01T02:32:07.653Z,48.26
2018-05-01T02:34:34.665Z,48.30
2018-05-01T02:37:01.713Z,48.07
2018-05-01T02:39:28.700Z,48.27
2018-05-01T02:41:55.705Z,48.42
2018-05-01T02:44:22.751Z,48.19
2018-05-01T02:46:49.733Z,48.36
2018-05-01T02:49:16.749Z,47.92
2018-05-01T02:51:43.796Z,48.04
2018-05-01T02:54:11.051Z,48.55
2018-05-01T02:56:38.128Z,48.10
2018-05-01T02:59:05.150Z,48.52
2018-05-01T03:01:32.186Z,48.35
2018-05-01T03:03:59.346Z,48.30
2018-05-01T03:06:26.357Z,47.91
2018-05-01T03:08:53.332Z,48.02
2018-05-01T03:11:20.305Z,47.95
2018-05-01T03:13:47.309Z,47.93
2018-05-01T03:16:14.292Z,47.64
2018-05-01T03:18:41.311Z,47.64
2018-05-01T03:21:08.377Z,47.66
2018-05-01T03:23:35.425Z,47.79
2018-05-01T03:26:02.412Z,47.51
2018-05-01T03:28:29.434Z,47.58
2018-05-01T03:30:56.447Z,47.20
2018-05-01T03:33:23.493Z,47.04
2018-05-01T03:35:50.496Z,46.95
2018-05-01T03:38:17.476Z,46.90
2018-05-01T03:40:44.461Z,47.05
2018-05-01T03:43:11.475Z,47.12
2018-05-01T03:45:38.460Z,46.95
2018-05-01T03:48:05.482Z,47.08
2018-05-01T03:50:32.501Z,47.17
2018-05-01T03:52:59.484Z,47.19
2018-05-01T03:55:26.472Z,47.44
2018-05-01T03:57:53.560Z,47.09
2018-05-01T04:00:20.541Z,47.63
2018-05-01T04:02:47.520Z,47.90
2018-05-01T04:05:14.524Z,47.22
2018-05-01T04:07:41.510Z,47.27
2018-05-01T04:10:08.516Z,47.58
2018-05-01T04:12:35.742Z,47.58
2018-05-01T04:15:02.731Z,47.21
2018-05-01T04:17:29.705Z,47.83
2018-05-01T04:19:56.719Z,47.45
2018-05-01T04:22:23.723Z,47.80
2018-05-01T04:24:50.699Z,47.89
2018-05-01T04:27:17.716Z,48.15
2018-05-01T04:29:44.701Z,48.23
2018-05-01T04:32:11.711Z,48.33
2018-05-01T04:34:38.795Z,48.76
2018-05-01T04:37:05.806Z,49.00
2018-05-01T04:39:32.789Z,49.11
2018-05-01T04:41:59.796Z,49.70
2018-05-01T04:44:26.780Z,48.88
2018-05-01T04:46:53.811Z,49.44
2018-05-01T04:49:20.821Z,49.07
2018-05-01T04:51:47.884Z,49.27
2018-05-01T04:54:14.909Z,49.35
2018-05-01T04:56:41.977Z,49.35
2018-05-01T04:59:08.947Z,49.81
2018-05-01T05:01:35.972Z,49.50
2018-05-01T05:04:03.016Z,48.77
2018-05-01T05:06:30.005Z,48.60
2018-05-01T05:08:57.120Z,48.66
2018-05-01T05:11:24.678Z,48.96
2018-05-01T05:13:51.662Z,48.41
2018-05-01T05:16:18.663Z,48.16
2018-05-01T05:18:45.684Z,48.12
2018-05-01T05:21:12.657Z,48.03
2018-05-01T05:23:39.651Z,47.76
2018-05-01T05:26:06.661Z,47.89
2018-05-01T05:28:33.637Z,47.63
2018-05-01T05:31:00.626Z,47.82
2018-05-01T05:33:27.976Z,47.29
2018-05-01T05:35:54.983Z,46.90
2018-05-01T05:38:21.994Z,46.84
2018-05-01T05:40:49.018Z,47.20
2018-05-01T05:43:16.014Z,47.21
2018-05-01T05:45:43.029Z,46.52
2018-05-01T05:48:10.054Z,46.74
2018-05-01T05:50:37.129Z,46.19
2018-05-01T05:53:04.262Z,46.40
2018-05-01T05:55:31.309Z,46.72
2018-05-01T05:57:58.371Z,46.08
2018-05-01T06:00:25.351Z,45.76
2018-05-01T06:02:52.393Z,45.86
2018-05-01T06:05:19.406Z,46.23
2018-05-01T06:07:46.391Z,46.11
2018-05-01T06:10:13.405Z,47.47
2018-05-01T06:12:40.388Z,46.15
2018-05-01T06:15:07.392Z,45.51
2018-05-01T06:17:34.456Z,45.60
2018-05-01T06:20:01.444Z,45.40
2018-05-01T06:22:28.432Z,45.06
2018-05-01T06:24:55.497Z,45.10
2018-05-01T06:27:22.473Z,45.13
2018-05-01T06:29:49.470Z,45.16
2018-05-01T06:32:16.718Z,45.32
2018-05-01T06:34:43.771Z,45.42
2018-05-01T06:37:10.818Z,45.93
2018-05-01T06:39:37.914Z,45.66
2018-05-01T06:42:04.957Z,45.02
2018-05-01T06:44:32.001Z,45.52
2018-05-01T06:46:59.066Z,45.01
2018-05-01T06:49:26.162Z,44.66
2018-05-01T06:51:53.154Z,45.16
2018-05-01T06:54:20.190Z,44.77
2018-05-01T06:56:47.210Z,44.30
2018-05-01T06:59:14.243Z,44.41
2018-05-01T07:01:41.259Z,43.85
2018-05-01T07:04:08.265Z,42.95
2018-05-01T07:06:35.249Z,42.81
2018-05-01T07:09:02.928Z,43.06
2018-05-01T07:11:29.982Z,42.57
2018-05-01T07:13:57.358Z,42.96
2018-05-01T07:16:24.888Z,43.15
2018-05-01T07:18:52.269Z,41.49
2018-05-01T07:21:19.424Z,42.33
2018-05-01T07:23:47.292Z,41.25
2018-05-01T07:26:15.712Z,39.86
2018-05-01T07:28:43.025Z,39.57
2018-05-01T07:31:10.964Z,39.41
2018-05-01T07:33:39.071Z,39.28
2018-05-01T07:36:06.426Z,38.08
2018-05-01T07:38:33.606Z,37.91
2018-05-01T07:41:02.956Z,38.21
2018-05-01T07:43:30.970Z,38.99
2018-05-01T07:45:59.101Z,38.67
2018-05-01T07:48:26.565Z,38.65
2018-05-01T07:50:54.041Z,37.34
2018-05-01T07:53:24.132Z,38.07
2018-05-01T07:55:51.266Z,38.74
2018-05-01T07:58:18.460Z,38.53
2018-05-01T08:00:46.218Z,38.50
2018-05-01T08:03:13.589Z,38.78
2018-05-01T08:05:41.424Z,36.90
2018-05-01T08:08:09.234Z,37.58
2018-05-01T08:10:36.780Z,36.28
2018-05-01T08:13:04.923Z,35.30
2018-05-01T08:15:32.701Z,35.15
2018-05-01T08:18:00.034Z,34.39
2018-05-01T08:20:27.931Z,34.94
2018-05-01T08:22:55.343Z,35.12
2018-05-01T08:25:23.354Z,35.08
2018-05-01T08:27:51.092Z,34.17
2018-05-01T08:30:18.855Z,34.19
2018-05-01T08:32:46.934Z,34.07
2018-05-01T08:35:14.083Z,36.13
2018-05-01T08:37:41.549Z,35.02
2018-05-01T08:40:09.196Z,34.46
2018-05-01T08:42:36.654Z,35.69
2018-05-01T08:45:05.413Z,34.93
2018-05-01T08:47:32.693Z,35.00
2018-05-01T08:50:00.356Z,34.96
2018-05-01T08:52:28.150Z,34.22
2018-05-01T08:54:55.576Z,34.42
2018-05-01T08:57:22.804Z,33.89
2018-05-01T08:59:50.005Z,33.08
2018-05-01T09:02:17.331Z,33.13
2018-05-01T09:04:46.325Z,32.66
2018-05-01T09:07:14.236Z,32.27
2018-05-01T09:09:43.014Z,32.52
2018-05-01T09:12:10.186Z,32.60
2018-05-01T09:14:37.709Z,33.19
2018-05-01T09:17:05.866Z,33.74
2018-05-01T09:19:33.013Z,32.61
2018-05-01T09:22:00.711Z,33.30
2018-05-01T09:24:27.748Z,33.57
2018-05-01T09:26:54.803Z,33.44
2018-05-01T09:29:21.874Z,33.50
2018-05-01T09:31:48.905Z,34.37
2018-05-01T09:34:15.912Z,34.60
2018-05-01T09:36:44.182Z,34.24
2018-05-01T09:39:11.750Z,34.67
2018-05-01T09:41:38.832Z,34.81
2018-05-01T09:44:06.048Z,34.53
2018-05-01T09:46:33.402Z,34.05
2018-05-01T09:49:01.360Z,34.02
2018-05-01T09:51:29.546Z,33.09
2018-05-01T09:53:57.425Z,32.53
2018-05-01T09:56:25.191Z,32.29
2018-05-01T09:58:53.247Z,31.37
2018-05-01T10:01:21.323Z,32.33
2018-05-01T10:03:49.859Z,31.96
2018-05-01T10:06:17.976Z,31.99
2018-05-01T10:08:45.748Z,31.62
2018-05-01T10:11:13.808Z,30.28
2018-05-01T10:13:41.689Z,27.98
2018-05-01T10:16:09.477Z,29.07
2018-05-01T10:18:37.227Z,29.47
2018-05-01T10:21:05.075Z,28.41
2018-05-01T10:23:32.837Z,28.78
2018-05-01T10:26:00.613Z,28.59
2018-05-01T10:28:28.527Z,25.71
2018-05-01T10:30:56.490Z,25.01
2018-05-01T10:33:24.299Z,24.96
2018-05-01T10:35:52.381Z,24.33
2018-05-01T10:38:20.146Z,25.61
2018-05-01T10:40:48.210Z,24.87
2018-05-01T10:43:16.393Z,26.59
2018-05-01T10:45:45.386Z,27.09
2018-05-01T10:48:13.148Z,28.38
2018-05-01T10:50:40.900Z,29.70
2018-05-01T10:53:09.177Z,31.27
2018-05-01T10:55:36.956Z,31.06
2018-05-01T10:58:05.089Z,29.03
2018-05-01T11:00:32.774Z,29.65
2018-05-01T11:03:00.464Z,28.15
2018-05-01T11:05:28.430Z,28.12
2018-05-01T11:07:56.177Z,27.46
2018-05-01T11:10:23.758Z,27.58
2018-05-01T11:12:51.806Z,26.17
2018-05-01T11:15:19.826Z,23.36
2018-05-01T11:17:48.282Z,20.67
2018-05-01T11:20:16.229Z,21.25
2018-05-01T11:22:44.089Z,20.98
2018-05-01T11:25:11.856Z,22.79
2018-05-01T11:27:39.624Z,23.72
2018-05-01T11:30:07.601Z,25.19
2018-05-01T11:32:36.477Z,26.12
2018-05-01T11:35:05.588Z,27.11
2018-05-01T11:37:33.354Z,25.36
2018-05-01T11:40:01.622Z,24.71
2018-05-01T11:42:30.199Z,23.97
2018-05-01T11:44:58.448Z,24.60
2018-05-01T11:47:26.559Z,25.05
2018-05-01T11:49:54.683Z,24.75
2018-05-01T11:52:22.995Z,24.71
2018-05-01T11:54:50.965Z,26.05
2018-05-01T11:57:19.546Z,26.18
2018-05-01T11:59:47.847Z,25.27
2018-05-01T12:02:16.323Z,22.78
2018-05-01T12:04:44.550Z,20.35
2018-05-01T12:07:12.479Z,19.77
2018-05-01T12:09:40.262Z,18.50
2018-05-01T12:12:08.489Z,17.10
2018-05-01T12:14:39.537Z,16.00
2018-05-01T12:17:07.529Z,19.22
2018-05-01T12:19:37.313Z,20.73
2018-05-01T12:22:05.384Z,20.36
2018-05-01T12:24:34.068Z,21.31
2018-05-01T12:27:02.157Z,23.23
2018-05-01T12:29:30.108Z,24.67
2018-05-01T12:31:58.454Z,25.41
2018-05-01T12:34:27.192Z,26.01
2018-05-01T12:36:55.253Z,25.53
2018-05-01T12:39:23.064Z,25.89
2018-05-01T12:41:51.182Z,26.24
2018-05-01T12:44:19.169Z,26.11
2018-05-01T12:46:47.247Z,26.43
2018-05-01T12:49:15.595Z,26.08
2018-05-01T12:51:43.587Z,27.29
2018-05-01T12:54:12.375Z,27.82
2018-05-01T12:56:40.327Z,27.97
2018-05-01T12:59:08.296Z,27.12
2018-05-01T13:01:36.469Z,26.22
2018-05-01T13:04:04.643Z,26.60
2018-05-01T13:06:32.873Z,25.95
2018-05-01T13:09:00.858Z,26.40
2018-05-01T13:11:28.710Z,26.70
2018-05-01T13:13:56.519Z,26.05
2018-05-01T13:16:24.292Z,25.49
2018-05-01T13:18:52.655Z,22.37
2018-05-01T13:21:20.962Z,21.00
2018-05-01T13:23:49.098Z,20.33
2018-05-01T13:26:17.287Z,20.43
2018-05-01T13:28:45.152Z,20.83
2018-05-01T13:31:12.996Z,20.62
2018-05-01T13:33:42.238Z,18.29
2018-05-01T13:36:09.987Z,15.89
2018-05-01T13:38:37.799Z,15.55
2018-05-01T13:41:06.018Z,14.62
2018-05-01T13:43:33.690Z,14.17
2018-05-01T13:46:01.555Z,13.03
2018-05-01T13:48:29.619Z,13.05
2018-05-01T13:50:57.640Z,13.02
2018-05-01T13:53:25.464Z,13.49
2018-05-01T13:55:53.330Z,13.33
2018-05-01T13:58:21.081Z,13.37
2018-05-01T14:00:49.030Z,14.02
2018-05-01T14:03:17.257Z,14.34
2018-05-01T14:05:45.197Z,13.43
2018-05-01T14:08:13.550Z,14.90
2018-05-01T14:10:41.757Z,14.75
2018-05-01T14:13:10.258Z,13.51
2018-05-01T14:15:38.833Z,13.87
2018-05-01T14:18:06.785Z,13.35
2018-05-01T14:20:34.778Z,13.59
2018-05-01T14:23:03.310Z,13.46
2018-05-01T14:25:31.498Z,13.33
2018-05-01T14:27:59.302Z,13.96
2018-05-01T14:30:27.218Z,16.18
2018-05-01T14:32:55.723Z,17.35
2018-05-01T14:35:23.498Z,16.39
2018-05-01T14:37:51.363Z,16.30
2018-05-01T14:40:19.251Z,17.27
2018-05-01T14:42:47.089Z,18.31
2018-05-01T14:45:15.899Z,18.15
2018-05-01T14:47:45.051Z,19.49
2018-05-01T14:50:12.799Z,18.57
2018-05-01T14:52:40.489Z,17.75
2018-05-01T14:55:08.495Z,17.36
2018-05-01T14:57:36.429Z,17.62
2018-05-01T15:00:04.218Z,20.81
2018-05-01T15:02:35.446Z,21.80
2018-05-01T15:05:03.415Z,22.41
2018-05-01T15:07:31.307Z,20.84
2018-05-01T15:09:59.668Z,19.60
2018-05-01T15:12:27.717Z,19.21
2018-05-01T15:14:55.346Z,18.69
2018-05-01T15:17:23.252Z,17.78
2018-05-01T15:19:50.927Z,16.52
2018-05-01T15:22:18.791Z,17.00
2018-05-01T15:24:47.172Z,17.13
2018-05-01T15:27:15.167Z,16.85
2018-05-01T15:29:43.003Z,16.81
2018-05-01T15:32:10.870Z,17.03
2018-05-01T15:34:39.656Z,16.92
2018-05-01T15:37:07.634Z,16.84
2018-05-01T15:39:35.698Z,17.01
2018-05-01T15:42:03.801Z,17.27
2018-05-01T15:44:32.407Z,17.40
2018-05-01T15:47:00.630Z,17.89
2018-05-01T15:49:28.702Z,17.91
2018-05-01T15:51:56.566Z,17.50
2018-05-01T15:54:24.638Z,18.37
2018-05-01T15:56:52.914Z,20.81
2018-05-01T15:59:20.910Z,21.78
2018-05-01T16:01:49.195Z,22.58
2018-05-01T16:04:17.744Z,23.13
2018-05-01T16:06:45.723Z,24.80
2018-05-01T16:09:13.987Z,25.67
2018-05-01T16:11:42.675Z,25.06
2018-05-01T16:14:10.999Z,25.34
2018-05-01T16:16:39.225Z,25.99
2018-05-01T16:19:07.816Z,26.00
2018-05-01T16:21:35.401Z,26.27
2018-05-01T16:24:03.351Z,27.16
2018-05-01T16:26:31.972Z,27.65
2018-05-01T16:29:00.817Z,28.24
2018-05-01T16:31:29.438Z,28.40
2018-05-01T16:33:57.326Z,28.98
2018-05-01T16:36:25.027Z,28.09
2018-05-01T16:38:52.992Z,28.71
2018-05-01T16:41:20.584Z,29.23
2018-05-01T16:43:48.324Z,29.52
2018-05-01T16:46:16.102Z,29.63
2018-05-01T16:48:43.633Z,28.91
2018-05-01T16:51:11.158Z,28.85
2018-05-01T16:53:39.256Z,28.96
2018-05-01T16:56:06.836Z,29.30
2018-05-01T16:58:34.472Z,29.85
2018-05-01T17:01:02.258Z,29.37
2018-05-01T17:03:29.929Z,28.78
2018-05-01T17:05:57.605Z,28.70
2018-05-01T17:08:26.502Z,29.15
2018-05-01T17:10:54.692Z,29.17
2018-05-01T17:13:22.376Z,28.11
2018-05-01T17:15:50.276Z,28.04
2018-05-01T17:18:18.041Z,29.14
2018-05-01T17:20:46.522Z,28.83
2018-05-01T17:23:14.267Z,29.50
2018-05-01T17:25:41.948Z,29.01
2018-05-01T17:28:09.625Z,29.21
2018-05-01T17:30:37.886Z,29.35
2018-05-01T17:33:05.854Z,29.28
2018-05-01T17:35:33.673Z,29.79
2018-05-01T17:38:01.710Z,29.56
2018-05-01T17:40:29.461Z,29.83
2018-05-01T17:42:57.321Z,30.32
2018-05-01T17:45:25.409Z,30.88
2018-05-01T17:47:53.280Z,30.93
2018-05-01T17:50:21.194Z,31.05
2018-05-01T17:52:49.606Z,31.16
2018-05-01T17:55:17.883Z,31.89
2018-05-01T17:57:45.752Z,32.15
2018-05-01T18:00:14.144Z,32.94
2018-05-01T18:02:42.560Z,32.80
2018-05-01T18:05:10.385Z,33.14
2018-05-01T18:07:38.366Z,33.18
2018-05-01T18:10:06.232Z,33.76
2018-05-01T18:12:34.178Z,34.36
2018-05-01T18:15:02.518Z,33.93
2018-05-01T18:17:30.331Z,34.76
2018-05-01T18:19:58.186Z,34.57
2018-05-01T18:22:26.690Z,35.17
2018-05-01T18:24:54.931Z,35.76
2018-05-01T18:27:23.015Z,36.18
2018-05-01T18:29:51.655Z,35.93
2018-05-01T18:32:19.567Z,36.15
2018-05-01T18:34:47.926Z,36.18
2018-05-01T18:37:16.092Z,36.98
2018-05-01T18:39:43.902Z,36.67
2018-05-01T18:42:11.791Z,36.88
2018-05-01T18:44:39.839Z,37.24
2018-05-01T18:47:07.607Z,37.05
2018-05-01T18:49:35.964Z,37.53
2018-05-01T18:52:04.240Z,37.81
2018-05-01T18:54:32.223Z,37.72
2018-05-01T18:57:00.178Z,37.78
2018-05-01T18:59:28.023Z,37.79
2018-05-01T19:01:55.864Z,37.87
2018-05-01T19:04:24.112Z,38.09
2018-05-01T19:06:52.156Z,38.01
2018-05-01T19:09:20.228Z,38.22
2018-05-01T19:11:48.234Z,37.94
2018-05-01T19:14:16.268Z,38.38
2018-05-01T19:16:44.345Z,38.34
2018-05-01T19:19:14.230Z,38.30
2018-05-01T19:21:42.633Z,38.23
2018-05-01T19:24:10.641Z,38.22
2018-05-01T19:26:38.932Z,38.67
2018-05-01T19:29:07.273Z,38.25
2018-05-01T19:31:35.840Z,38.64
2018-05-01T19:34:03.706Z,38.83
2018-05-01T19:36:32.291Z,38.53
2018-05-01T19:39:00.363Z,38.52
2018-05-01T19:41:28.308Z,39.17
2018-05-01T19:43:56.423Z,39.08
2018-05-01T19:46:24.647Z,39.10
2018-05-01T19:48:53.058Z,39.22
2018-05-01T19:51:21.333Z,39.14
2018-05-01T19:53:49.222Z,39.44
2018-05-01T19:56:17.272Z,39.45
2018-05-01T19:58:46.468Z,39.65
2018-05-01T20:01:14.357Z,40.03
2018-05-01T20:03:42.202Z,40.56
2018-05-01T20:06:10.236Z,40.04
2018-05-01T20:08:38.652Z,40.04
2018-05-01T20:11:06.417Z,39.96
2018-05-01T20:13:35.354Z,39.96
2018-05-01T20:16:03.348Z,39.88
2018-05-01T20:18:31.212Z,39.83
2018-05-01T20:21:00.474Z,40.25
2018-05-01T20:23:28.322Z,40.11
2018-05-01T20:25:56.175Z,40.26
2018-05-01T20:28:24.408Z,40.17
2018-05-01T20:30:52.318Z,39.85
2018-05-01T20:33:20.901Z,40.26
2018-05-01T20:35:48.671Z,40.01
2018-05-01T20:38:16.450Z,40.07
2018-05-01T20:40:44.194Z,39.88
2018-05-01T20:43:12.330Z,40.19
2018-05-01T20:45:39.923Z,40.67
2018-05-01T20:48:07.682Z,40.78
2018-05-01T20:50:35.665Z,40.11
2018-05-01T20:53:03.425Z,40.71
2018-05-01T20:55:31.494Z,40.33
2018-05-01T20:57:59.342Z,40.44
2018-05-01T21:00:27.039Z,40.48
2018-05-01T21:02:54.784Z,40.65
2018-05-01T21:05:22.654Z,40.39
2018-05-01T21:07:51.260Z,40.68
2018-05-01T21:10:19.017Z,41.35
2018-05-01T21:12:46.770Z,41.71
2018-05-01T21:15:15.203Z,42.24
2018-05-01T21:17:42.909Z,42.45
2018-05-01T21:20:11.289Z,42.67
2018-05-01T21:22:39.059Z,42.62
2018-05-01T21:25:06.922Z,42.54
2018-05-01T21:27:34.887Z,42.98
2018-05-01T21:30:02.669Z,44.94
2018-05-01T21:32:30.672Z,45.03
2018-05-01T21:34:58.507Z,45.05
2018-05-01T21:37:26.160Z,46.05
2018-05-01T21:39:53.916Z,46.51
2018-05-01T21:42:21.999Z,45.99
2018-05-01T21:44:49.705Z,45.85
2018-05-01T21:47:17.307Z,47.05
2018-05-01T21:49:45.292Z,46.27
2018-05-01T21:52:13.043Z,46.77
2018-05-01T21:54:46.335Z,47.20
2018-05-01T21:57:14.191Z,46.82
2018-05-01T21:59:41.815Z,47.71
2018-05-01T22:02:09.667Z,47.67
2018-05-01T22:04:37.392Z,48.06
2018-05-01T22:07:05.155Z,47.97
2018-05-01T22:09:33.377Z,48.63
2018-05-01T22:12:01.110Z,48.61
2018-05-01T22:14:28.653Z,49.31
2018-05-01T22:16:56.605Z,49.51
2018-05-01T22:19:24.184Z,49.75
2018-05-01T22:21:51.740Z,50.52
2018-05-01T22:24:19.672Z,50.29
2018-05-01T22:26:47.208Z,50.19
2018-05-01T22:29:15.367Z,50.45
2018-05-01T22:31:44.045Z,50.47
2018-05-01T22:34:12.509Z,50.40
2018-05-01T22:36:41.081Z,50.65
2018-05-01T22:39:08.751Z,50.67
2018-05-01T22:41:36.312Z,50.99
2018-05-01T22:44:04.842Z,50.99
2018-05-01T22:46:32.412Z,50.66
2018-05-01T22:49:00.116Z,50.68
2018-05-01T22:51:28.292Z,50.76
2018-05-01T22:53:56.055Z,50.65
2018-05-01T22:56:23.835Z,51.11
2018-05-01T22:58:51.361Z,50.87
2018-05-01T23:01:19.248Z,50.97
2018-05-01T23:03:46.838Z,50.82
2018-05-01T23:06:14.423Z,50.73
2018-05-01T23:08:41.936Z,51.45
2018-05-01T23:11:09.449Z,50.85
2018-05-01T23:13:36.970Z,50.57
2018-05-01T23:16:04.524Z,50.76
2018-05-01T23:18:32.060Z,50.31
2018-05-01T23:20:59.614Z,49.92
2018-05-01T23:23:27.185Z,50.17
2018-05-01T23:25:54.941Z,50.57
2018-05-01T23:28:22.517Z,50.09
2018-05-01T23:30:50.246Z,50.28
2018-05-01T23:33:18.147Z,50.31
2018-05-01T23:35:45.691Z,50.74
2018-05-01T23:38:13.248Z,51.09
2018-05-01T23:40:40.810Z,51.11
2018-05-01T23:43:08.361Z,50.92
2018-05-01T23:45:36.166Z,50.82
2018-05-01T23:48:03.705Z,50.61
2018-05-01T23:50:31.250Z,50.49
2018-05-01T23:52:58.989Z,51.24
2018-05-01T23:55:26.502Z,50.85
2018-05-01T23:57:54.022Z,50.86
